sensor_id;sensor_type;location;lat;lon;timestamp;P1;durP1;ratioP1;P2;durP2;ratioP2
7661;SDS011;30314;48.184;11.510;2024-03-17T00:01:04;3.10;;;2.33;;
7661;SDS011;30314;48.184;11.510;2024-03-17T00:03:30;3.70;;;2.73;;
7661;SDS011;30314;48.184;11.510;2024-03-17T00:05:59;5.40;;;2.23;;
7661;SDS011;30314;48.184;11.510;2024-03-17T00:08:26;4.00;;;2.87;;
7661;SDS011;30314;48.184;11.510;2024-03-17T00:10:52;4.47;;;2.87;;
7661;SDS011;30314;48.184;11.510;2024-03-17T00:13:20;3.57;;;2.47;;
7661;SDS011;30314;48.184;11.510;2024-03-17T00:15:47;4.63;;;2.80;;
7661;SDS011;30314;48.184;11.510;2024-03-17T00:18:13;4.20;;;3.03;;
7661;SDS011;30314;48.184;11.510;2024-03-17T00:20:39;2.60;;;1.93;;
7661;SDS011;30314;48.184;11.510;2024-03-17T00:23:05;3.13;;;2.70;;
7661;SDS011;30314;48.184;11.510;2024-03-17T00:25:35;4.20;;;3.07;;
7661;SDS011;30314;48.184;11.510;2024-03-17T00:28:01;6.23;;;3.00;;
7661;SDS011;30314;48.184;11.510;2024-03-17T00:30:27;3.40;;;2.17;;
7661;SDS011;30314;48.184;11.510;2024-03-17T00:32:53;3.83;;;2.63;;
7661;SDS011;30314;48.184;11.510;2024-03-17T00:35:18;5.40;;;2.70;;
7661;SDS011;30314;48.184;11.510;2024-03-17T00:37:47;3.40;;;2.67;;
7661;SDS011;30314;48.184;11.510;2024-03-17T00:40:13;2.27;;;1.93;;
7661;SDS011;30314;48.184;11.510;2024-03-17T00:42:39;4.60;;;2.80;;
7661;SDS011;30314;48.184;11.510;2024-03-17T00:45:06;5.00;;;2.60;;
7661;SDS011;30314;48.184;11.510;2024-03-17T00:47:32;4.00;;;2.57;;
7661;SDS011;30314;48.184;11.510;2024-03-17T00:49:58;3.10;;;2.30;;
7661;SDS011;30314;48.184;11.510;2024-03-17T00:52:23;3.83;;;2.27;;
7661;SDS011;30314;48.184;11.510;2024-03-17T00:54:49;2.67;;;2.20;;
7661;SDS011;30314;48.184;11.510;2024-03-17T00:57:15;5.70;;;2.43;;
7661;SDS011;30314;48.184;11.510;2024-03-17T00:59:44;3.43;;;2.40;;
7661;SDS011;30314;48.184;11.510;2024-03-17T01:02:10;3.93;;;2.90;;
7661;SDS011;30314;48.184;11.510;2024-03-17T01:04:39;4.43;;;3.40;;
7661;SDS011;30314;48.184;11.510;2024-03-17T01:07:05;4.47;;;3.20;;
7661;SDS011;30314;48.184;11.510;2024-03-17T01:09:31;5.00;;;2.90;;
7661;SDS011;30314;48.184;11.510;2024-03-17T01:11:57;4.20;;;2.97;;
7661;SDS011;30314;48.184;11.510;2024-03-17T01:14:22;4.03;;;3.30;;
7661;SDS011;30314;48.184;11.510;2024-03-17T01:16:48;4.20;;;2.63;;
7661;SDS011;30314;48.184;11.510;2024-03-17T01:19:16;4.60;;;3.23;;
7661;SDS011;30314;48.184;11.510;2024-03-17T01:21:41;5.73;;;2.90;;
7661;SDS011;30314;48.184;11.510;2024-03-17T01:24:07;4.40;;;2.83;;
7661;SDS011;30314;48.184;11.510;2024-03-17T01:26:33;5.97;;;3.37;;
7661;SDS011;30314;48.184;11.510;2024-03-17T01:28:58;3.20;;;2.60;;
7661;SDS011;30314;48.184;11.510;2024-03-17T01:31:24;5.40;;;3.77;;
7661;SDS011;30314;48.184;11.510;2024-03-17T01:33:50;4.57;;;3.60;;
7661;SDS011;30314;48.184;11.510;2024-03-17T01:36:16;5.23;;;3.03;;
7661;SDS011;30314;48.184;11.510;2024-03-17T01:38:41;3.50;;;2.90;;
7661;SDS011;30314;48.184;11.510;2024-03-17T01:41:07;4.37;;;3.13;;
7661;SDS011;30314;48.184;11.510;2024-03-17T01:43:32;7.03;;;2.90;;
7661;SDS011;30314;48.184;11.510;2024-03-17T01:45:58;4.93;;;3.77;;
7661;SDS011;30314;48.184;11.510;2024-03-17T01:48:24;5.87;;;3.10;;
7661;SDS011;30314;48.184;11.510;2024-03-17T01:50:52;5.77;;;4.27;;
7661;SDS011;30314;48.184;11.510;2024-03-17T01:53:20;4.67;;;2.73;;
7661;SDS011;30314;48.184;11.510;2024-03-17T01:55:47;5.07;;;3.57;;
7661;SDS011;30314;48.184;11.510;2024-03-17T01:58:13;5.07;;;3.60;;
7661;SDS011;30314;48.184;11.510;2024-03-17T02:00:39;7.00;;;3.67;;
7661;SDS011;30314;48.184;11.510;2024-03-17T02:03:05;4.03;;;2.70;;
7661;SDS011;30314;48.184;11.510;2024-03-17T02:05:34;5.23;;;2.80;;
7661;SDS011;30314;48.184;11.510;2024-03-17T02:08:05;4.43;;;3.10;;
7661;SDS011;30314;48.184;11.510;2024-03-17T02:10:34;3.97;;;2.93;;
7661;SDS011;30314;48.184;11.510;2024-03-17T02:13:03;5.50;;;3.33;;
7661;SDS011;30314;48.184;11.510;2024-03-17T02:15:30;4.47;;;3.03;;
7661;SDS011;30314;48.184;11.510;2024-03-17T02:17:56;4.43;;;2.77;;
7661;SDS011;30314;48.184;11.510;2024-03-17T02:20:21;4.27;;;3.00;;
7661;SDS011;30314;48.184;11.510;2024-03-17T02:23:10;5.73;;;4.10;;
7661;SDS011;30314;48.184;11.510;2024-03-17T02:25:36;5.80;;;3.67;;
7661;SDS011;30314;48.184;11.510;2024-03-17T02:28:02;4.60;;;3.37;;
7661;SDS011;30314;48.184;11.510;2024-03-17T02:30:28;7.00;;;4.10;;
7661;SDS011;30314;48.184;11.510;2024-03-17T02:32:54;5.63;;;2.90;;
7661;SDS011;30314;48.184;11.510;2024-03-17T02:35:23;5.90;;;3.80;;
7661;SDS011;30314;48.184;11.510;2024-03-17T02:37:49;5.03;;;3.47;;
7661;SDS011;30314;48.184;11.510;2024-03-17T02:40:16;4.80;;;3.57;;
7661;SDS011;30314;48.184;11.510;2024-03-17T02:42:42;6.10;;;3.37;;
7661;SDS011;30314;48.184;11.510;2024-03-17T02:45:11;4.50;;;3.80;;
7661;SDS011;30314;48.184;11.510;2024-03-17T02:47:38;9.10;;;3.60;;
7661;SDS011;30314;48.184;11.510;2024-03-17T02:50:04;4.07;;;3.20;;
7661;SDS011;30314;48.184;11.510;2024-03-17T02:52:30;5.37;;;4.07;;
7661;SDS011;30314;48.184;11.510;2024-03-17T02:54:55;5.47;;;3.23;;
7661;SDS011;30314;48.184;11.510;2024-03-17T02:57:21;5.47;;;3.33;;
7661;SDS011;30314;48.184;11.510;2024-03-17T02:59:50;4.03;;;2.80;;
7661;SDS011;30314;48.184;11.510;2024-03-17T03:02:17;4.80;;;3.73;;
7661;SDS011;30314;48.184;11.510;2024-03-17T03:04:43;5.80;;;3.97;;
7661;SDS011;30314;48.184;11.510;2024-03-17T03:07:09;5.37;;;3.63;;
7661;SDS011;30314;48.184;11.510;2024-03-17T03:09:34;3.97;;;3.10;;
7661;SDS011;30314;48.184;11.510;2024-03-17T03:12:00;5.20;;;3.63;;
7661;SDS011;30314;48.184;11.510;2024-03-17T03:14:29;4.50;;;3.33;;
7661;SDS011;30314;48.184;11.510;2024-03-17T03:16:57;4.97;;;3.40;;
7661;SDS011;30314;48.184;11.510;2024-03-17T03:19:23;7.07;;;4.20;;
7661;SDS011;30314;48.184;11.510;2024-03-17T03:21:49;4.30;;;3.03;;
7661;SDS011;30314;48.184;11.510;2024-03-17T03:24:15;4.13;;;3.67;;
7661;SDS011;30314;48.184;11.510;2024-03-17T03:26:42;5.40;;;3.60;;
7661;SDS011;30314;48.184;11.510;2024-03-17T03:29:09;4.40;;;3.30;;
7661;SDS011;30314;48.184;11.510;2024-03-17T03:31:36;8.87;;;3.87;;
7661;SDS011;30314;48.184;11.510;2024-03-17T03:34:04;4.00;;;3.03;;
7661;SDS011;30314;48.184;11.510;2024-03-17T03:36:32;5.33;;;3.43;;
7661;SDS011;30314;48.184;11.510;2024-03-17T03:38:59;6.90;;;4.00;;
7661;SDS011;30314;48.184;11.510;2024-03-17T03:41:24;4.27;;;3.33;;
7661;SDS011;30314;48.184;11.510;2024-03-17T03:43:50;4.17;;;3.20;;
7661;SDS011;30314;48.184;11.510;2024-03-17T03:46:16;5.43;;;3.13;;
7661;SDS011;30314;48.184;11.510;2024-03-17T03:48:41;5.90;;;3.80;;
7661;SDS011;30314;48.184;11.510;2024-03-17T03:51:08;4.37;;;3.30;;
7661;SDS011;30314;48.184;11.510;2024-03-17T03:53:35;5.70;;;3.63;;
7661;SDS011;30314;48.184;11.510;2024-03-17T03:56:02;6.23;;;3.83;;
7661;SDS011;30314;48.184;11.510;2024-03-17T03:58:32;8.30;;;4.30;;
7661;SDS011;30314;48.184;11.510;2024-03-17T04:00:59;5.23;;;4.17;;
7661;SDS011;30314;48.184;11.510;2024-03-17T04:03:25;5.50;;;3.87;;
7661;SDS011;30314;48.184;11.510;2024-03-17T04:05:51;6.33;;;4.10;;
7661;SDS011;30314;48.184;11.510;2024-03-17T04:08:19;7.63;;;4.17;;
7661;SDS011;30314;48.184;11.510;2024-03-17T04:10:44;5.57;;;4.00;;
7661;SDS011;30314;48.184;11.510;2024-03-17T04:13:10;6.03;;;4.17;;
7661;SDS011;30314;48.184;11.510;2024-03-17T04:15:36;5.40;;;3.93;;
7661;SDS011;30314;48.184;11.510;2024-03-17T04:18:02;8.30;;;4.10;;
7661;SDS011;30314;48.184;11.510;2024-03-17T04:20:29;5.90;;;3.80;;
7661;SDS011;30314;48.184;11.510;2024-03-17T04:22:54;4.73;;;2.97;;
7661;SDS011;30314;48.184;11.510;2024-03-17T04:25:20;4.80;;;3.50;;
7661;SDS011;30314;48.184;11.510;2024-03-17T04:27:46;4.97;;;3.87;;
7661;SDS011;30314;48.184;11.510;2024-03-17T04:30:11;5.53;;;4.23;;
7661;SDS011;30314;48.184;11.510;2024-03-17T04:32:37;6.60;;;4.10;;
7661;SDS011;30314;48.184;11.510;2024-03-17T04:35:03;8.43;;;4.40;;
7661;SDS011;30314;48.184;11.510;2024-03-17T04:37:28;8.33;;;5.97;;
7661;SDS011;30314;48.184;11.510;2024-03-17T04:39:54;7.40;;;4.43;;
7661;SDS011;30314;48.184;11.510;2024-03-17T04:42:22;6.00;;;4.27;;
7661;SDS011;30314;48.184;11.510;2024-03-17T04:44:48;6.87;;;4.77;;
7661;SDS011;30314;48.184;11.510;2024-03-17T04:47:14;6.80;;;4.20;;
7661;SDS011;30314;48.184;11.510;2024-03-17T04:49:40;5.63;;;4.30;;
7661;SDS011;30314;48.184;11.510;2024-03-17T04:52:08;7.33;;;4.50;;
7661;SDS011;30314;48.184;11.510;2024-03-17T04:54:34;7.80;;;5.03;;
7661;SDS011;30314;48.184;11.510;2024-03-17T04:57:00;7.47;;;4.57;;
7661;SDS011;30314;48.184;11.510;2024-03-17T04:59:26;5.27;;;3.97;;
7661;SDS011;30314;48.184;11.510;2024-03-17T05:01:52;6.30;;;4.67;;
7661;SDS011;30314;48.184;11.510;2024-03-17T05:04:18;6.90;;;4.87;;
7661;SDS011;30314;48.184;11.510;2024-03-17T05:06:44;8.10;;;4.20;;
7661;SDS011;30314;48.184;11.510;2024-03-17T05:09:14;5.50;;;3.93;;
7661;SDS011;30314;48.184;11.510;2024-03-17T05:11:42;5.90;;;4.10;;
7661;SDS011;30314;48.184;11.510;2024-03-17T05:14:08;7.20;;;4.97;;
7661;SDS011;30314;48.184;11.510;2024-03-17T05:16:34;6.90;;;4.90;;
7661;SDS011;30314;48.184;11.510;2024-03-17T05:19:00;5.33;;;3.90;;
7661;SDS011;30314;48.184;11.510;2024-03-17T05:21:25;8.73;;;4.77;;
7661;SDS011;30314;48.184;11.510;2024-03-17T05:23:55;6.37;;;4.07;;
7661;SDS011;30314;48.184;11.510;2024-03-17T05:26:27;7.00;;;4.07;;
7661;SDS011;30314;48.184;11.510;2024-03-17T05:28:52;6.63;;;5.20;;
7661;SDS011;30314;48.184;11.510;2024-03-17T05:31:18;5.80;;;4.30;;
7661;SDS011;30314;48.184;11.510;2024-03-17T05:33:46;7.07;;;4.60;;
7661;SDS011;30314;48.184;11.510;2024-03-17T05:36:12;7.43;;;4.47;;
7661;SDS011;30314;48.184;11.510;2024-03-17T05:38:38;7.00;;;5.20;;
7661;SDS011;30314;48.184;11.510;2024-03-17T05:41:07;7.43;;;5.17;;
7661;SDS011;30314;48.184;11.510;2024-03-17T05:43:34;8.27;;;5.13;;
7661;SDS011;30314;48.184;11.510;2024-03-17T05:46:01;8.10;;;3.93;;
7661;SDS011;30314;48.184;11.510;2024-03-17T05:48:28;9.50;;;4.20;;
7661;SDS011;30314;48.184;11.510;2024-03-17T05:50:55;10.37;;;4.97;;
7661;SDS011;30314;48.184;11.510;2024-03-17T05:53:21;6.57;;;4.77;;
7661;SDS011;30314;48.184;11.510;2024-03-17T05:55:51;9.00;;;5.00;;
7661;SDS011;30314;48.184;11.510;2024-03-17T05:58:16;6.50;;;4.20;;
7661;SDS011;30314;48.184;11.510;2024-03-17T06:00:42;7.17;;;4.47;;
7661;SDS011;30314;48.184;11.510;2024-03-17T06:03:09;5.73;;;4.83;;
7661;SDS011;30314;48.184;11.510;2024-03-17T06:05:35;7.37;;;4.27;;
7661;SDS011;30314;48.184;11.510;2024-03-17T06:08:02;8.60;;;5.53;;
7661;SDS011;30314;48.184;11.510;2024-03-17T06:10:30;8.47;;;5.30;;
7661;SDS011;30314;48.184;11.510;2024-03-17T06:12:56;9.40;;;6.33;;
7661;SDS011;30314;48.184;11.510;2024-03-17T06:15:23;8.80;;;5.50;;
7661;SDS011;30314;48.184;11.510;2024-03-17T06:17:49;7.07;;;5.00;;
7661;SDS011;30314;48.184;11.510;2024-03-17T06:20:25;12.00;;;6.13;;
7661;SDS011;30314;48.184;11.510;2024-03-17T06:22:54;12.03;;;5.87;;
7661;SDS011;30314;48.184;11.510;2024-03-17T06:25:21;12.07;;;6.40;;
7661;SDS011;30314;48.184;11.510;2024-03-17T06:27:52;9.20;;;5.87;;
7661;SDS011;30314;48.184;11.510;2024-03-17T06:30:18;14.90;;;8.07;;
7661;SDS011;30314;48.184;11.510;2024-03-17T06:32:45;10.40;;;6.40;;
7661;SDS011;30314;48.184;11.510;2024-03-17T06:35:11;10.20;;;5.87;;
7661;SDS011;30314;48.184;11.510;2024-03-17T06:37:41;12.93;;;7.03;;
7661;SDS011;30314;48.184;11.510;2024-03-17T06:40:08;9.77;;;5.77;;
7661;SDS011;30314;48.184;11.510;2024-03-17T06:42:38;8.63;;;5.00;;
7661;SDS011;30314;48.184;11.510;2024-03-17T06:45:04;10.83;;;5.93;;
7661;SDS011;30314;48.184;11.510;2024-03-17T06:47:31;10.60;;;6.23;;
7661;SDS011;30314;48.184;11.510;2024-03-17T06:49:57;11.20;;;6.30;;
7661;SDS011;30314;48.184;11.510;2024-03-17T06:52:22;11.20;;;5.83;;
7661;SDS011;30314;48.184;11.510;2024-03-17T06:54:48;10.50;;;6.47;;
7661;SDS011;30314;48.184;11.510;2024-03-17T06:57:17;7.73;;;4.90;;
7661;SDS011;30314;48.184;11.510;2024-03-17T06:59:42;8.47;;;5.40;;
7661;SDS011;30314;48.184;11.510;2024-03-17T07:02:08;6.33;;;3.97;;
7661;SDS011;30314;48.184;11.510;2024-03-17T07:04:36;6.80;;;4.03;;
7661;SDS011;30314;48.184;11.510;2024-03-17T07:07:02;5.20;;;3.97;;
7661;SDS011;30314;48.184;11.510;2024-03-17T07:09:28;6.00;;;4.40;;
7661;SDS011;30314;48.184;11.510;2024-03-17T07:11:53;9.13;;;4.33;;
7661;SDS011;30314;48.184;11.510;2024-03-17T07:14:19;7.10;;;3.90;;
7661;SDS011;30314;48.184;11.510;2024-03-17T07:16:44;4.27;;;3.13;;
7661;SDS011;30314;48.184;11.510;2024-03-17T07:19:10;5.93;;;4.00;;
7661;SDS011;30314;48.184;11.510;2024-03-17T07:21:35;4.97;;;3.40;;
7661;SDS011;30314;48.184;11.510;2024-03-17T07:24:01;5.57;;;3.73;;
7661;SDS011;30314;48.184;11.510;2024-03-17T07:26:30;5.90;;;3.63;;
7661;SDS011;30314;48.184;11.510;2024-03-17T07:28:56;5.20;;;3.37;;
7661;SDS011;30314;48.184;11.510;2024-03-17T07:31:22;7.80;;;4.53;;
7661;SDS011;30314;48.184;11.510;2024-03-17T07:33:47;6.27;;;4.03;;
7661;SDS011;30314;48.184;11.510;2024-03-17T07:36:14;7.27;;;3.90;;
7661;SDS011;30314;48.184;11.510;2024-03-17T07:38:40;5.20;;;3.47;;
7661;SDS011;30314;48.184;11.510;2024-03-17T07:41:06;5.80;;;3.23;;
7661;SDS011;30314;48.184;11.510;2024-03-17T07:43:34;6.53;;;2.90;;
7661;SDS011;30314;48.184;11.510;2024-03-17T07:46:05;7.57;;;3.37;;
7661;SDS011;30314;48.184;11.510;2024-03-17T07:48:32;2.50;;;2.17;;
7661;SDS011;30314;48.184;11.510;2024-03-17T07:51:01;4.27;;;2.90;;
7661;SDS011;30314;48.184;11.510;2024-03-17T07:53:32;4.20;;;2.87;;
7661;SDS011;30314;48.184;11.510;2024-03-17T07:58:37;4.33;;;2.87;;
7661;SDS011;30314;48.184;11.510;2024-03-17T08:01:05;5.77;;;3.07;;
7661;SDS011;30314;48.184;11.510;2024-03-17T08:03:36;4.83;;;2.80;;
7661;SDS011;30314;48.184;11.510;2024-03-17T08:06:03;4.03;;;2.67;;
7661;SDS011;30314;48.184;11.510;2024-03-17T08:08:30;3.53;;;2.70;;
7661;SDS011;30314;48.184;11.510;2024-03-17T08:10:57;4.53;;;3.10;;
7661;SDS011;30314;48.184;11.510;2024-03-17T08:13:23;4.60;;;2.93;;
7661;SDS011;30314;48.184;11.510;2024-03-17T08:15:56;4.07;;;2.57;;
7661;SDS011;30314;48.184;11.510;2024-03-17T08:18:24;3.97;;;2.83;;
7661;SDS011;30314;48.184;11.510;2024-03-17T08:20:50;5.20;;;2.50;;
7661;SDS011;30314;48.184;11.510;2024-03-17T08:23:16;4.10;;;2.73;;
7661;SDS011;30314;48.184;11.510;2024-03-17T08:25:41;3.57;;;3.00;;
7661;SDS011;30314;48.184;11.510;2024-03-17T08:28:07;3.43;;;2.73;;
7661;SDS011;30314;48.184;11.510;2024-03-17T08:30:33;4.27;;;3.10;;
7661;SDS011;30314;48.184;11.510;2024-03-17T08:32:59;4.13;;;3.20;;
7661;SDS011;30314;48.184;11.510;2024-03-17T08:35:27;3.50;;;3.00;;
7661;SDS011;30314;48.184;11.510;2024-03-17T08:37:53;5.27;;;3.20;;
7661;SDS011;30314;48.184;11.510;2024-03-17T08:40:22;5.07;;;3.10;;
7661;SDS011;30314;48.184;11.510;2024-03-17T08:42:50;4.47;;;3.27;;
7661;SDS011;30314;48.184;11.510;2024-03-17T08:45:16;3.57;;;2.93;;
7661;SDS011;30314;48.184;11.510;2024-03-17T08:47:41;2.43;;;2.10;;
7661;SDS011;30314;48.184;11.510;2024-03-17T08:50:07;4.17;;;2.33;;
7661;SDS011;30314;48.184;11.510;2024-03-17T08:52:34;5.43;;;3.00;;
7661;SDS011;30314;48.184;11.510;2024-03-17T08:55:00;3.83;;;2.47;;
7661;SDS011;30314;48.184;11.510;2024-03-17T08:57:29;6.40;;;2.63;;
7661;SDS011;30314;48.184;11.510;2024-03-17T08:59:55;2.67;;;2.37;;
7661;SDS011;30314;48.184;11.510;2024-03-17T09:02:20;4.43;;;3.40;;
7661;SDS011;30314;48.184;11.510;2024-03-17T09:04:49;4.10;;;2.67;;
7661;SDS011;30314;48.184;11.510;2024-03-17T09:07:14;3.10;;;2.03;;
7661;SDS011;30314;48.184;11.510;2024-03-17T09:09:43;4.47;;;2.30;;
7661;SDS011;30314;48.184;11.510;2024-03-17T09:12:09;3.40;;;1.80;;
7661;SDS011;30314;48.184;11.510;2024-03-17T09:14:34;2.17;;;1.80;;
7661;SDS011;30314;48.184;11.510;2024-03-17T09:17:00;3.30;;;2.30;;
7661;SDS011;30314;48.184;11.510;2024-03-17T09:19:26;2.57;;;2.10;;
7661;SDS011;30314;48.184;11.510;2024-03-17T09:21:54;2.87;;;2.23;;
7661;SDS011;30314;48.184;11.510;2024-03-17T09:24:20;3.60;;;2.10;;
7661;SDS011;30314;48.184;11.510;2024-03-17T09:26:46;2.73;;;2.10;;
7661;SDS011;30314;48.184;11.510;2024-03-17T09:29:12;2.93;;;2.27;;
7661;SDS011;30314;48.184;11.510;2024-03-17T09:31:40;2.80;;;2.10;;
7661;SDS011;30314;48.184;11.510;2024-03-17T09:34:07;3.23;;;2.20;;
7661;SDS011;30314;48.184;11.510;2024-03-17T09:36:33;3.20;;;2.23;;
7661;SDS011;30314;48.184;11.510;2024-03-17T09:38:58;2.97;;;2.40;;
7661;SDS011;30314;48.184;11.510;2024-03-17T09:41:26;3.40;;;2.03;;
7661;SDS011;30314;48.184;11.510;2024-03-17T09:43:55;2.40;;;1.90;;
7661;SDS011;30314;48.184;11.510;2024-03-17T09:46:22;3.00;;;2.13;;
7661;SDS011;30314;48.184;11.510;2024-03-17T09:48:49;4.60;;;2.20;;
7661;SDS011;30314;48.184;11.510;2024-03-17T09:51:18;2.30;;;1.70;;
7661;SDS011;30314;48.184;11.510;2024-03-17T09:53:45;4.67;;;2.33;;
7661;SDS011;30314;48.184;11.510;2024-03-17T09:56:11;2.60;;;2.10;;
7661;SDS011;30314;48.184;11.510;2024-03-17T09:58:44;1.87;;;1.53;;
7661;SDS011;30314;48.184;11.510;2024-03-17T10:01:11;1.80;;;1.43;;
7661;SDS011;30314;48.184;11.510;2024-03-17T10:06:20;2.37;;;1.43;;
7661;SDS011;30314;48.184;11.510;2024-03-17T10:11:13;1.97;;;1.50;;
7661;SDS011;30314;48.184;11.510;2024-03-17T10:13:41;3.40;;;1.60;;
7661;SDS011;30314;48.184;11.510;2024-03-17T10:16:24;2.67;;;1.20;;
7661;SDS011;30314;48.184;11.510;2024-03-17T10:21:33;2.60;;;1.77;;
7661;SDS011;30314;48.184;11.510;2024-03-17T10:26:30;1.73;;;1.10;;
7661;SDS011;30314;48.184;11.510;2024-03-17T10:28:56;5.43;;;1.40;;
7661;SDS011;30314;48.184;11.510;2024-03-17T10:31:21;4.90;;;1.30;;
7661;SDS011;30314;48.184;11.510;2024-03-17T10:33:48;2.13;;;1.27;;
7661;SDS011;30314;48.184;11.510;2024-03-17T10:36:26;3.57;;;0.87;;
7661;SDS011;30314;48.184;11.510;2024-03-17T10:38:51;2.40;;;1.30;;
7661;SDS011;30314;48.184;11.510;2024-03-17T10:41:18;1.80;;;1.10;;
7661;SDS011;30314;48.184;11.510;2024-03-17T10:43:46;2.57;;;0.90;;
7661;SDS011;30314;48.184;11.510;2024-03-17T10:46:11;3.07;;;1.10;;
7661;SDS011;30314;48.184;11.510;2024-03-17T10:48:40;2.23;;;1.33;;
7661;SDS011;30314;48.184;11.510;2024-03-17T10:51:07;1.40;;;0.80;;
7661;SDS011;30314;48.184;11.510;2024-03-17T10:53:39;4.67;;;1.60;;
7661;SDS011;30314;48.184;11.510;2024-03-17T10:56:06;2.03;;;1.07;;
7661;SDS011;30314;48.184;11.510;2024-03-17T10:58:34;2.20;;;1.30;;
7661;SDS011;30314;48.184;11.510;2024-03-17T11:01:07;2.30;;;1.77;;
7661;SDS011;30314;48.184;11.510;2024-03-17T11:03:37;1.27;;;1.00;;
7661;SDS011;30314;48.184;11.510;2024-03-17T11:06:03;1.80;;;0.93;;
7661;SDS011;30314;48.184;11.510;2024-03-17T11:08:31;2.30;;;1.20;;
7661;SDS011;30314;48.184;11.510;2024-03-17T11:10:58;3.90;;;1.30;;
7661;SDS011;30314;48.184;11.510;2024-03-17T11:15:51;3.33;;;1.03;;
7661;SDS011;30314;48.184;11.510;2024-03-17T11:23:37;3.10;;;0.93;;
7661;SDS011;30314;48.184;11.510;2024-03-17T11:26:03;2.07;;;0.90;;
7661;SDS011;30314;48.184;11.510;2024-03-17T11:34:29;4.80;;;0.93;;
7661;SDS011;30314;48.184;11.510;2024-03-17T11:36:57;3.00;;;0.60;;
7661;SDS011;30314;48.184;11.510;2024-03-17T11:42:26;4.73;;;0.80;;
7661;SDS011;30314;48.184;11.510;2024-03-17T11:44:57;5.43;;;1.00;;
7661;SDS011;30314;48.184;11.510;2024-03-17T11:47:40;1.60;;;0.70;;
7661;SDS011;30314;48.184;11.510;2024-03-17T11:50:09;2.37;;;0.80;;
7661;SDS011;30314;48.184;11.510;2024-03-17T11:52:38;2.67;;;1.20;;
7661;SDS011;30314;48.184;11.510;2024-03-17T11:55:06;1.43;;;0.57;;
7661;SDS011;30314;48.184;11.510;2024-03-17T11:57:41;3.27;;;0.90;;
7661;SDS011;30314;48.184;11.510;2024-03-17T12:00:15;3.57;;;1.20;;
7661;SDS011;30314;48.184;11.510;2024-03-17T12:02:47;3.30;;;1.00;;
7661;SDS011;30314;48.184;11.510;2024-03-17T12:05:14;2.23;;;0.83;;
7661;SDS011;30314;48.184;11.510;2024-03-17T12:07:43;2.27;;;1.03;;
7661;SDS011;30314;48.184;11.510;2024-03-17T12:10:10;2.83;;;0.80;;
7661;SDS011;30314;48.184;11.510;2024-03-17T12:12:38;1.60;;;0.60;;
7661;SDS011;30314;48.184;11.510;2024-03-17T12:15:15;6.17;;;0.97;;
7661;SDS011;30314;48.184;11.510;2024-03-17T12:17:42;1.47;;;0.60;;
7661;SDS011;30314;48.184;11.510;2024-03-17T12:20:18;2.37;;;0.70;;
7661;SDS011;30314;48.184;11.510;2024-03-17T12:22:45;1.57;;;0.80;;
7661;SDS011;30314;48.184;11.510;2024-03-17T12:25:16;2.33;;;0.87;;
7661;SDS011;30314;48.184;11.510;2024-03-17T12:27:43;2.80;;;1.10;;
7661;SDS011;30314;48.184;11.510;2024-03-17T12:30:11;2.53;;;1.00;;
7661;SDS011;30314;48.184;11.510;2024-03-17T12:32:37;2.43;;;0.87;;
7661;SDS011;30314;48.184;11.510;2024-03-17T12:35:03;4.97;;;1.60;;
7661;SDS011;30314;48.184;11.510;2024-03-17T12:37:38;5.60;;;0.97;;
7661;SDS011;30314;48.184;11.510;2024-03-17T12:40:05;1.50;;;1.00;;
7661;SDS011;30314;48.184;11.510;2024-03-17T12:42:32;4.30;;;1.10;;
7661;SDS011;30314;48.184;11.510;2024-03-17T12:45:01;4.60;;;0.70;;
7661;SDS011;30314;48.184;11.510;2024-03-17T12:47:28;1.20;;;0.93;;
7661;SDS011;30314;48.184;11.510;2024-03-17T12:49:56;1.73;;;1.10;;
7661;SDS011;30314;48.184;11.510;2024-03-17T12:57:43;2.67;;;1.27;;
7661;SDS011;30314;48.184;11.510;2024-03-17T13:00:28;3.57;;;0.87;;
7661;SDS011;30314;48.184;11.510;2024-03-17T13:02:57;2.53;;;0.97;;
7661;SDS011;30314;48.184;11.510;2024-03-17T13:05:23;6.30;;;1.20;;
7661;SDS011;30314;48.184;11.510;2024-03-17T13:07:49;4.43;;;0.90;;
7661;SDS011;30314;48.184;11.510;2024-03-17T13:10:16;3.60;;;0.97;;
7661;SDS011;30314;48.184;11.510;2024-03-17T13:12:43;3.53;;;1.50;;
7661;SDS011;30314;48.184;11.510;2024-03-17T13:15:12;3.40;;;0.97;;
7661;SDS011;30314;48.184;11.510;2024-03-17T13:17:39;2.37;;;0.77;;
7661;SDS011;30314;48.184;11.510;2024-03-17T13:20:06;3.43;;;1.03;;
7661;SDS011;30314;48.184;11.510;2024-03-17T13:22:38;3.67;;;1.17;;
7661;SDS011;30314;48.184;11.510;2024-03-17T13:25:05;1.50;;;0.77;;
7661;SDS011;30314;48.184;11.510;2024-03-17T13:27:33;1.67;;;0.80;;
7661;SDS011;30314;48.184;11.510;2024-03-17T13:29:59;3.30;;;1.10;;
7661;SDS011;30314;48.184;11.510;2024-03-17T13:32:25;7.53;;;1.10;;
7661;SDS011;30314;48.184;11.510;2024-03-17T13:34:51;1.63;;;0.73;;
7661;SDS011;30314;48.184;11.510;2024-03-17T13:37:17;2.00;;;0.77;;
7661;SDS011;30314;48.184;11.510;2024-03-17T13:39:43;3.00;;;1.23;;
7661;SDS011;30314;48.184;11.510;2024-03-17T13:42:08;3.40;;;1.07;;
7661;SDS011;30314;48.184;11.510;2024-03-17T13:44:34;2.20;;;1.10;;
7661;SDS011;30314;48.184;11.510;2024-03-17T13:47:00;1.20;;;0.67;;
7661;SDS011;30314;48.184;11.510;2024-03-17T13:49:29;3.40;;;0.87;;
7661;SDS011;30314;48.184;11.510;2024-03-17T13:51:55;1.80;;;0.97;;
7661;SDS011;30314;48.184;11.510;2024-03-17T13:54:20;1.50;;;1.00;;
7661;SDS011;30314;48.184;11.510;2024-03-17T13:56:49;3.30;;;0.80;;
7661;SDS011;30314;48.184;11.510;2024-03-17T13:59:15;5.93;;;0.80;;
7661;SDS011;30314;48.184;11.510;2024-03-17T14:01:44;3.47;;;0.97;;
7661;SDS011;30314;48.184;11.510;2024-03-17T14:04:14;4.93;;;0.83;;
7661;SDS011;30314;48.184;11.510;2024-03-17T14:06:44;2.73;;;0.93;;
7661;SDS011;30314;48.184;11.510;2024-03-17T14:09:14;5.23;;;0.73;;
7661;SDS011;30314;48.184;11.510;2024-03-17T14:11:43;3.00;;;0.50;;
7661;SDS011;30314;48.184;11.510;2024-03-17T14:14:10;4.60;;;1.10;;
7661;SDS011;30314;48.184;11.510;2024-03-17T14:16:36;3.03;;;0.83;;
7661;SDS011;30314;48.184;11.510;2024-03-17T14:19:01;6.97;;;0.90;;
7661;SDS011;30314;48.184;11.510;2024-03-17T14:21:27;1.97;;;1.10;;
7661;SDS011;30314;48.184;11.510;2024-03-17T14:23:54;4.03;;;0.70;;
7661;SDS011;30314;48.184;11.510;2024-03-17T14:26:20;3.03;;;0.80;;
7661;SDS011;30314;48.184;11.510;2024-03-17T14:28:46;4.20;;;0.90;;
7661;SDS011;30314;48.184;11.510;2024-03-17T14:31:12;2.40;;;1.10;;
7661;SDS011;30314;48.184;11.510;2024-03-17T14:33:38;2.93;;;1.23;;
7661;SDS011;30314;48.184;11.510;2024-03-17T14:36:03;4.20;;;1.17;;
7661;SDS011;30314;48.184;11.510;2024-03-17T14:38:29;4.00;;;0.93;;
7661;SDS011;30314;48.184;11.510;2024-03-17T14:40:55;2.20;;;1.20;;
7661;SDS011;30314;48.184;11.510;2024-03-17T14:43:21;2.03;;;0.87;;
7661;SDS011;30314;48.184;11.510;2024-03-17T14:45:46;1.23;;;0.60;;
7661;SDS011;30314;48.184;11.510;2024-03-17T14:48:12;3.20;;;0.80;;
7661;SDS011;30314;48.184;11.510;2024-03-17T14:50:40;2.50;;;1.00;;
7661;SDS011;30314;48.184;11.510;2024-03-17T14:53:06;2.50;;;0.70;;
7661;SDS011;30314;48.184;11.510;2024-03-17T14:55:32;2.13;;;0.90;;
7661;SDS011;30314;48.184;11.510;2024-03-17T14:57:58;3.90;;;1.40;;
7661;SDS011;30314;48.184;11.510;2024-03-17T15:00:27;2.33;;;0.97;;
7661;SDS011;30314;48.184;11.510;2024-03-17T15:02:55;3.00;;;1.30;;
7661;SDS011;30314;48.184;11.510;2024-03-17T15:05:21;4.67;;;0.90;;
7661;SDS011;30314;48.184;11.510;2024-03-17T15:07:48;3.50;;;1.00;;
7661;SDS011;30314;48.184;11.510;2024-03-17T15:10:15;1.73;;;0.73;;
7661;SDS011;30314;48.184;11.510;2024-03-17T15:12:43;4.47;;;0.80;;
7661;SDS011;30314;48.184;11.510;2024-03-17T15:15:10;2.17;;;0.60;;
7661;SDS011;30314;48.184;11.510;2024-03-17T15:17:36;2.90;;;1.47;;
7661;SDS011;30314;48.184;11.510;2024-03-17T15:20:02;5.47;;;1.10;;
7661;SDS011;30314;48.184;11.510;2024-03-17T15:22:38;3.30;;;1.10;;